sensor_id;sensor_type;location;lat;lon;timestamp;P1;durP1;ratioP1;P2;durP2;ratioP2
42864;SDS011;28511;42.680;23.252;2022-09-19T00:01:43;2.83;;;2.00;;
42864;SDS011;28511;42.680;23.252;2022-09-19T00:04:10;3.13;;;1.50;;
42864;SDS011;28511;42.680;23.252;2022-09-19T00:06:37;3.42;;;1.85;;
42864;SDS011;28511;42.680;23.252;2022-09-19T00:09:04;3.45;;;2.22;;
42864;SDS011;28511;42.680;23.252;2022-09-19T00:11:29;3.20;;;2.00;;
42864;SDS011;28511;42.680;23.252;2022-09-19T00:13:55;1.90;;;1.40;;
42864;SDS011;28511;42.680;23.252;2022-09-19T00:16:25;2.13;;;1.52;;
42864;SDS011;28511;42.680;23.252;2022-09-19T00:18:51;3.93;;;2.07;;
42864;SDS011;28511;42.680;23.252;2022-09-19T00:21:18;2.42;;;1.48;;
42864;SDS011;28511;42.680;23.252;2022-09-19T00:23:43;2.25;;;1.67;;
42864;SDS011;28511;42.680;23.252;2022-09-19T00:26:27;3.28;;;1.55;;
42864;SDS011;28511;42.680;23.252;2022-09-19T00:28:53;2.80;;;1.83;;
42864;SDS011;28511;42.680;23.252;2022-09-19T00:31:20;3.33;;;2.17;;
42864;SDS011;28511;42.680;23.252;2022-09-19T00:33:46;3.50;;;1.88;;
42864;SDS011;28511;42.680;23.252;2022-09-19T00:36:11;1.45;;;1.35;;
42864;SDS011;28511;42.680;23.252;2022-09-19T00:38:37;3.25;;;1.40;;
42864;SDS011;28511;42.680;23.252;2022-09-19T00:41:03;3.65;;;1.70;;
42864;SDS011;28511;42.680;23.252;2022-09-19T00:46:12;2.08;;;1.55;;
42864;SDS011;28511;42.680;23.252;2022-09-19T00:48:38;3.17;;;1.60;;
42864;SDS011;28511;42.680;23.252;2022-09-19T00:51:08;1.65;;;1.45;;
42864;SDS011;28511;42.680;23.252;2022-09-19T00:53:33;3.47;;;1.60;;
42864;SDS011;28511;42.680;23.252;2022-09-19T00:55:58;4.68;;;1.50;;
42864;SDS011;28511;42.680;23.252;2022-09-19T00:58:31;3.42;;;1.52;;
42864;SDS011;28511;42.680;23.252;2022-09-19T01:00:57;3.95;;;1.98;;
42864;SDS011;28511;42.680;23.252;2022-09-19T01:03:24;5.63;;;2.00;;
42864;SDS011;28511;42.680;23.252;2022-09-19T01:16:10;5.60;;;2.27;;
42864;SDS011;28511;42.680;23.252;2022-09-19T01:18:45;3.92;;;3.00;;
42864;SDS011;28511;42.680;23.252;2022-09-19T01:21:26;3.65;;;2.47;;
42864;SDS011;28511;42.680;23.252;2022-09-19T01:32:16;3.75;;;1.80;;
42864;SDS011;28511;42.680;23.252;2022-09-19T01:34:46;5.18;;;1.92;;
42864;SDS011;28511;42.680;23.252;2022-09-19T01:37:18;5.90;;;1.65;;
42864;SDS011;28511;42.680;23.252;2022-09-19T01:39:46;5.97;;;1.90;;
42864;SDS011;28511;42.680;23.252;2022-09-19T01:42:12;2.20;;;1.73;;
42864;SDS011;28511;42.680;23.252;2022-09-19T01:44:38;5.47;;;2.90;;
42864;SDS011;28511;42.680;23.252;2022-09-19T01:49:52;2.83;;;2.08;;
42864;SDS011;28511;42.680;23.252;2022-09-19T01:57:38;3.00;;;1.95;;
42864;SDS011;28511;42.680;23.252;2022-09-19T02:00:08;2.20;;;1.88;;
42864;SDS011;28511;42.680;23.252;2022-09-19T02:10:08;1.50;;;1.27;;
42864;SDS011;28511;42.680;23.252;2022-09-19T02:12:35;2.35;;;1.60;;
42864;SDS011;28511;42.680;23.252;2022-09-19T02:15:01;2.28;;;1.75;;
42864;SDS011;28511;42.680;23.252;2022-09-19T02:17:30;2.50;;;1.83;;
42864;SDS011;28511;42.680;23.252;2022-09-19T02:20:09;5.88;;;2.20;;
42864;SDS011;28511;42.680;23.252;2022-09-19T02:22:37;2.13;;;1.50;;
42864;SDS011;28511;42.680;23.252;2022-09-19T02:25:04;1.52;;;1.42;;
42864;SDS011;28511;42.680;23.252;2022-09-19T02:27:35;1.38;;;1.27;;
42864;SDS011;28511;42.680;23.252;2022-09-19T02:30:05;3.85;;;1.88;;
42864;SDS011;28511;42.680;23.252;2022-09-19T02:32:33;3.13;;;1.70;;
42864;SDS011;28511;42.680;23.252;2022-09-19T02:35:00;2.13;;;1.60;;
42864;SDS011;28511;42.680;23.252;2022-09-19T02:37:29;4.32;;;2.38;;
42864;SDS011;28511;42.680;23.252;2022-09-19T02:40:00;2.35;;;1.48;;
42864;SDS011;28511;42.680;23.252;2022-09-19T02:47:50;2.88;;;1.90;;
42864;SDS011;28511;42.680;23.252;2022-09-19T02:53:02;4.95;;;1.88;;
42864;SDS011;28511;42.680;23.252;2022-09-19T02:55:30;3.53;;;1.67;;
42864;SDS011;28511;42.680;23.252;2022-09-19T02:57:58;5.10;;;1.73;;
42864;SDS011;28511;42.680;23.252;2022-09-19T03:00:27;3.25;;;1.77;;
42864;SDS011;28511;42.680;23.252;2022-09-19T03:02:54;4.65;;;2.75;;
42864;SDS011;28511;42.680;23.252;2022-09-19T03:05:22;8.00;;;3.13;;
42864;SDS011;28511;42.680;23.252;2022-09-19T03:08:09;5.82;;;1.70;;
42864;SDS011;28511;42.680;23.252;2022-09-19T03:10:35;3.08;;;1.85;;
42864;SDS011;28511;42.680;23.252;2022-09-19T03:13:02;2.30;;;2.10;;
42864;SDS011;28511;42.680;23.252;2022-09-19T03:17:58;3.20;;;2.60;;
42864;SDS011;28511;42.680;23.252;2022-09-19T03:20:25;2.20;;;1.73;;
42864;SDS011;28511;42.680;23.252;2022-09-19T03:22:51;3.03;;;2.00;;
42864;SDS011;28511;42.680;23.252;2022-09-19T03:25:18;5.35;;;2.20;;
42864;SDS011;28511;42.680;23.252;2022-09-19T03:27:43;3.83;;;2.67;;
42864;SDS011;28511;42.680;23.252;2022-09-19T03:30:10;3.42;;;2.42;;
42864;SDS011;28511;42.680;23.252;2022-09-19T03:32:36;3.58;;;2.72;;
42864;SDS011;28511;42.680;23.252;2022-09-19T03:35:02;5.20;;;1.85;;
42864;SDS011;28511;42.680;23.252;2022-09-19T03:37:29;2.60;;;2.15;;
42864;SDS011;28511;42.680;23.252;2022-09-19T03:39:55;5.80;;;2.70;;
42864;SDS011;28511;42.680;23.252;2022-09-19T03:42:20;2.55;;;2.22;;
42864;SDS011;28511;42.680;23.252;2022-09-19T03:44:46;3.22;;;2.22;;
42864;SDS011;28511;42.680;23.252;2022-09-19T03:47:11;2.95;;;2.03;;
42864;SDS011;28511;42.680;23.252;2022-09-19T03:49:36;2.60;;;1.80;;
42864;SDS011;28511;42.680;23.252;2022-09-19T03:52:02;2.45;;;1.67;;
42864;SDS011;28511;42.680;23.252;2022-09-19T03:54:32;2.67;;;1.77;;
42864;SDS011;28511;42.680;23.252;2022-09-19T03:57:00;2.20;;;1.95;;
42864;SDS011;28511;42.680;23.252;2022-09-19T03:59:27;2.53;;;1.67;;
42864;SDS011;28511;42.680;23.252;2022-09-19T04:10:40;1.65;;;1.42;;
42864;SDS011;28511;42.680;23.252;2022-09-19T04:13:07;2.45;;;2.17;;
42864;SDS011;28511;42.680;23.252;2022-09-19T04:15:32;4.80;;;2.20;;
42864;SDS011;28511;42.680;23.252;2022-09-19T04:17:58;3.03;;;2.15;;
42864;SDS011;28511;42.680;23.252;2022-09-19T04:20:23;4.45;;;2.85;;
42864;SDS011;28511;42.680;23.252;2022-09-19T04:22:52;2.07;;;1.77;;
42864;SDS011;28511;42.680;23.252;2022-09-19T04:25:17;2.38;;;1.95;;
42864;SDS011;28511;42.680;23.252;2022-09-19T04:27:42;4.10;;;1.92;;
42864;SDS011;28511;42.680;23.252;2022-09-19T04:30:10;2.70;;;1.80;;
42864;SDS011;28511;42.680;23.252;2022-09-19T04:32:35;2.58;;;1.73;;
42864;SDS011;28511;42.680;23.252;2022-09-19T04:35:02;2.58;;;1.58;;
42864;SDS011;28511;42.680;23.252;2022-09-19T04:37:27;2.72;;;1.60;;
42864;SDS011;28511;42.680;23.252;2022-09-19T04:39:55;4.05;;;2.45;;
42864;SDS011;28511;42.680;23.252;2022-09-19T04:42:20;6.75;;;2.88;;
42864;SDS011;28511;42.680;23.252;2022-09-19T04:44:45;5.07;;;2.53;;
42864;SDS011;28511;42.680;23.252;2022-09-19T04:47:10;3.50;;;2.25;;
42864;SDS011;28511;42.680;23.252;2022-09-19T04:49:36;1.95;;;1.52;;
42864;SDS011;28511;42.680;23.252;2022-09-19T04:52:05;2.92;;;1.85;;
42864;SDS011;28511;42.680;23.252;2022-09-19T04:54:30;2.13;;;1.92;;
42864;SDS011;28511;42.680;23.252;2022-09-19T04:57:01;5.00;;;2.53;;
42864;SDS011;28511;42.680;23.252;2022-09-19T04:59:27;2.67;;;2.30;;
42864;SDS011;28511;42.680;23.252;2022-09-19T05:01:52;4.13;;;2.53;;
42864;SDS011;28511;42.680;23.252;2022-09-19T05:04:18;3.63;;;1.70;;
42864;SDS011;28511;42.680;23.252;2022-09-19T05:06:44;6.80;;;2.60;;
42864;SDS011;28511;42.680;23.252;2022-09-19T05:09:09;3.00;;;1.63;;
42864;SDS011;28511;42.680;23.252;2022-09-19T05:11:36;2.83;;;1.40;;
42864;SDS011;28511;42.680;23.252;2022-09-19T05:14:07;2.08;;;1.25;;
42864;SDS011;28511;42.680;23.252;2022-09-19T05:16:34;1.38;;;1.10;;
42864;SDS011;28511;42.680;23.252;2022-09-19T05:18:59;1.73;;;1.33;;
42864;SDS011;28511;42.680;23.252;2022-09-19T05:21:25;2.13;;;1.80;;
42864;SDS011;28511;42.680;23.252;2022-09-19T05:23:50;4.63;;;1.90;;
42864;SDS011;28511;42.680;23.252;2022-09-19T05:26:16;2.70;;;2.03;;
42864;SDS011;28511;42.680;23.252;2022-09-19T05:28:43;2.47;;;1.98;;
42864;SDS011;28511;42.680;23.252;2022-09-19T05:31:12;2.67;;;2.03;;
42864;SDS011;28511;42.680;23.252;2022-09-19T05:33:38;3.13;;;2.15;;
42864;SDS011;28511;42.680;23.252;2022-09-19T05:36:04;5.53;;;2.63;;
42864;SDS011;28511;42.680;23.252;2022-09-19T05:38:30;6.70;;;3.40;;
42864;SDS011;28511;42.680;23.252;2022-09-19T05:40:56;6.97;;;3.53;;
42864;SDS011;28511;42.680;23.252;2022-09-19T05:43:22;3.97;;;3.38;;
42864;SDS011;28511;42.680;23.252;2022-09-19T05:45:50;7.53;;;2.63;;
42864;SDS011;28511;42.680;23.252;2022-09-19T05:48:16;4.38;;;2.92;;
42864;SDS011;28511;42.680;23.252;2022-09-19T05:50:43;4.15;;;2.78;;
42864;SDS011;28511;42.680;23.252;2022-09-19T05:53:12;16.05;;;4.95;;
42864;SDS011;28511;42.680;23.252;2022-09-19T05:55:56;6.60;;;4.45;;
42864;SDS011;28511;42.680;23.252;2022-09-19T05:58:21;10.07;;;3.85;;
42864;SDS011;28511;42.680;23.252;2022-09-19T06:00:47;7.40;;;3.60;;
42864;SDS011;28511;42.680;23.252;2022-09-19T06:03:13;5.32;;;3.50;;
42864;SDS011;28511;42.680;23.252;2022-09-19T06:08:08;4.68;;;2.78;;
42864;SDS011;28511;42.680;23.252;2022-09-19T06:10:35;5.43;;;3.65;;
42864;SDS011;28511;42.680;23.252;2022-09-19T06:13:02;12.95;;;3.92;;
42864;SDS011;28511;42.680;23.252;2022-09-19T06:15:27;8.10;;;4.97;;
42864;SDS011;28511;42.680;23.252;2022-09-19T06:17:56;10.48;;;5.63;;
42864;SDS011;28511;42.680;23.252;2022-09-19T06:20:22;8.93;;;5.68;;
42864;SDS011;28511;42.680;23.252;2022-09-19T06:22:48;8.85;;;5.55;;
42864;SDS011;28511;42.680;23.252;2022-09-19T06:25:15;5.90;;;4.00;;
42864;SDS011;28511;42.680;23.252;2022-09-19T06:27:40;5.93;;;3.95;;
42864;SDS011;28511;42.680;23.252;2022-09-19T06:30:11;5.82;;;3.53;;
42864;SDS011;28511;42.680;23.252;2022-09-19T06:32:37;5.63;;;3.08;;
42864;SDS011;28511;42.680;23.252;2022-09-19T06:35:03;6.43;;;3.38;;
42864;SDS011;28511;42.680;23.252;2022-09-19T06:37:28;5.22;;;3.10;;
42864;SDS011;28511;42.680;23.252;2022-09-19T06:39:53;4.57;;;3.53;;
42864;SDS011;28511;42.680;23.252;2022-09-19T06:42:19;4.80;;;3.42;;
42864;SDS011;28511;42.680;23.252;2022-09-19T06:44:44;4.65;;;2.80;;
42864;SDS011;28511;42.680;23.252;2022-09-19T06:47:09;5.20;;;3.10;;
42864;SDS011;28511;42.680;23.252;2022-09-19T06:49:34;5.63;;;3.70;;
42864;SDS011;28511;42.680;23.252;2022-09-19T06:52:01;5.22;;;3.53;;
42864;SDS011;28511;42.680;23.252;2022-09-19T06:54:26;9.85;;;3.85;;
42864;SDS011;28511;42.680;23.252;2022-09-19T06:56:52;6.28;;;2.97;;
42864;SDS011;28511;42.680;23.252;2022-09-19T06:59:18;6.65;;;3.40;;
42864;SDS011;28511;42.680;23.252;2022-09-19T07:01:44;4.55;;;3.47;;
42864;SDS011;28511;42.680;23.252;2022-09-19T07:04:13;4.65;;;3.38;;
42864;SDS011;28511;42.680;23.252;2022-09-19T07:06:38;7.45;;;3.15;;
42864;SDS011;28511;42.680;23.252;2022-09-19T07:09:05;3.25;;;2.63;;
42864;SDS011;28511;42.680;23.252;2022-09-19T07:11:32;4.45;;;2.97;;
42864;SDS011;28511;42.680;23.252;2022-09-19T07:13:58;4.13;;;3.30;;
42864;SDS011;28511;42.680;23.252;2022-09-19T07:16:23;6.93;;;3.40;;
42864;SDS011;28511;42.680;23.252;2022-09-19T07:18:49;3.50;;;2.47;;
42864;SDS011;28511;42.680;23.252;2022-09-19T07:21:15;3.75;;;3.00;;
42864;SDS011;28511;42.680;23.252;2022-09-19T07:23:40;3.65;;;2.97;;
42864;SDS011;28511;42.680;23.252;2022-09-19T07:26:05;4.38;;;3.55;;
42864;SDS011;28511;42.680;23.252;2022-09-19T07:28:31;7.05;;;3.90;;
42864;SDS011;28511;42.680;23.252;2022-09-19T07:30:57;3.85;;;2.53;;
42864;SDS011;28511;42.680;23.252;2022-09-19T07:33:23;4.97;;;3.20;;
42864;SDS011;28511;42.680;23.252;2022-09-19T07:35:54;7.05;;;3.35;;
42864;SDS011;28511;42.680;23.252;2022-09-19T07:38:20;7.00;;;3.47;;
42864;SDS011;28511;42.680;23.252;2022-09-19T07:40:47;6.55;;;3.40;;
42864;SDS011;28511;42.680;23.252;2022-09-19T07:43:13;5.90;;;3.63;;
42864;SDS011;28511;42.680;23.252;2022-09-19T07:45:41;4.65;;;2.97;;
42864;SDS011;28511;42.680;23.252;2022-09-19T07:48:08;5.68;;;3.28;;
42864;SDS011;28511;42.680;23.252;2022-09-19T07:50:33;6.85;;;2.97;;
42864;SDS011;28511;42.680;23.252;2022-09-19T07:53:04;7.72;;;2.95;;
42864;SDS011;28511;42.680;23.252;2022-09-19T07:55:30;8.73;;;3.10;;
42864;SDS011;28511;42.680;23.252;2022-09-19T07:57:56;5.07;;;2.70;;
42864;SDS011;28511;42.680;23.252;2022-09-19T08:00:22;4.22;;;2.75;;
42864;SDS011;28511;42.680;23.252;2022-09-19T08:02:58;5.53;;;2.75;;
42864;SDS011;28511;42.680;23.252;2022-09-19T08:05:23;5.28;;;3.38;;
42864;SDS011;28511;42.680;23.252;2022-09-19T08:07:49;4.40;;;2.55;;
42864;SDS011;28511;42.680;23.252;2022-09-19T08:10:15;7.70;;;3.45;;
42864;SDS011;28511;42.680;23.252;2022-09-19T08:12:41;4.63;;;2.80;;
42864;SDS011;28511;42.680;23.252;2022-09-19T08:15:09;4.50;;;2.63;;
42864;SDS011;28511;42.680;23.252;2022-09-19T08:17:34;5.55;;;2.97;;
42864;SDS011;28511;42.680;23.252;2022-09-19T08:20:01;4.65;;;2.22;;
42864;SDS011;28511;42.680;23.252;2022-09-19T08:22:28;6.47;;;3.22;;
42864;SDS011;28511;42.680;23.252;2022-09-19T08:24:53;6.90;;;3.00;;
42864;SDS011;28511;42.680;23.252;2022-09-19T08:27:19;5.13;;;3.28;;
42864;SDS011;28511;42.680;23.252;2022-09-19T08:29:45;4.28;;;2.78;;
42864;SDS011;28511;42.680;23.252;2022-09-19T08:32:11;5.15;;;2.25;;
42864;SDS011;28511;42.680;23.252;2022-09-19T08:34:36;7.03;;;2.80;;
42864;SDS011;28511;42.680;23.252;2022-09-19T08:37:02;6.43;;;2.53;;
42864;SDS011;28511;42.680;23.252;2022-09-19T08:39:27;6.57;;;3.08;;
42864;SDS011;28511;42.680;23.252;2022-09-19T08:47:06;4.28;;;2.45;;
42864;SDS011;28511;42.680;23.252;2022-09-19T08:49:36;9.85;;;3.33;;
42864;SDS011;28511;42.680;23.252;2022-09-19T08:54:47;6.50;;;3.00;;
42864;SDS011;28511;42.680;23.252;2022-09-19T08:59:42;6.43;;;3.08;;
42864;SDS011;28511;42.680;23.252;2022-09-19T09:04:44;6.15;;;3.03;;
42864;SDS011;28511;42.680;23.252;2022-09-19T09:17:48;7.97;;;3.37;;
42864;SDS011;28511;42.680;23.252;2022-09-19T09:23:16;5.88;;;2.72;;
42864;SDS011;28511;42.680;23.252;2022-09-19T09:25:42;6.47;;;3.10;;
42864;SDS011;28511;42.680;23.252;2022-09-19T09:33:35;6.13;;;2.38;;
42864;SDS011;28511;42.680;23.252;2022-09-19T09:36:10;4.88;;;2.38;;
42864;SDS011;28511;42.680;23.252;2022-09-19T09:38:39;5.90;;;3.15;;
42864;SDS011;28511;42.680;23.252;2022-09-19T09:41:14;4.57;;;2.60;;
42864;SDS011;28511;42.680;23.252;2022-09-19T09:49:21;6.88;;;2.28;;
42864;SDS011;28511;42.680;23.252;2022-09-19T09:59:54;5.32;;;2.28;;
42864;SDS011;28511;42.680;23.252;2022-09-19T10:05:29;4.90;;;2.58;;
42864;SDS011;28511;42.680;23.252;2022-09-19T10:10:44;3.13;;;2.65;;
42864;SDS011;28511;42.680;23.252;2022-09-19T10:13:23;5.85;;;1.92;;
42864;SDS011;28511;42.680;23.252;2022-09-19T10:15:55;4.82;;;2.40;;
42864;SDS011;28511;42.680;23.252;2022-09-19T10:18:23;6.68;;;3.13;;
42864;SDS011;28511;42.680;23.252;2022-09-19T10:20:51;2.92;;;1.80;;
42864;SDS011;28511;42.680;23.252;2022-09-19T10:23:24;3.55;;;1.77;;
42864;SDS011;28511;42.680;23.252;2022-09-19T10:25:51;4.63;;;2.35;;
42864;SDS011;28511;42.680;23.252;2022-09-19T10:28:23;3.67;;;1.98;;
42864;SDS011;28511;42.680;23.252;2022-09-19T10:30:53;4.03;;;2.05;;
42864;SDS011;28511;42.680;23.252;2022-09-19T10:33:35;4.68;;;2.25;;
42864;SDS011;28511;42.680;23.252;2022-09-19T10:36:05;8.52;;;2.17;;
42864;SDS011;28511;42.680;23.252;2022-09-19T10:38:37;4.03;;;1.80;;
42864;SDS011;28511;42.680;23.252;2022-09-19T10:41:11;8.05;;;2.65;;
42864;SDS011;28511;42.680;23.252;2022-09-19T10:43:46;4.72;;;1.65;;
42864;SDS011;28511;42.680;23.252;2022-09-19T10:46:17;5.03;;;1.85;;
42864;SDS011;28511;42.680;23.252;2022-09-19T10:48:49;4.00;;;2.20;;
42864;SDS011;28511;42.680;23.252;2022-09-19T10:51:15;2.75;;;1.38;;
42864;SDS011;28511;42.680;23.252;2022-09-19T10:53:43;3.50;;;1.85;;
42864;SDS011;28511;42.680;23.252;2022-09-19T10:56:21;4.30;;;1.67;;
42864;SDS011;28511;42.680;23.252;2022-09-19T10:58:55;3.95;;;2.10;;
42864;SDS011;28511;42.680;23.252;2022-09-19T11:01:25;3.30;;;1.38;;
42864;SDS011;28511;42.680;23.252;2022-09-19T11:03:58;3.10;;;1.42;;
42864;SDS011;28511;42.680;23.252;2022-09-19T11:06:23;4.22;;;1.63;;
42864;SDS011;28511;42.680;23.252;2022-09-19T11:08:50;2.67;;;1.55;;
42864;SDS011;28511;42.680;23.252;2022-09-19T11:14:16;4.47;;;1.85;;
42864;SDS011;28511;42.680;23.252;2022-09-19T11:16:59;5.78;;;1.60;;
42864;SDS011;28511;42.680;23.252;2022-09-19T11:19:39;2.75;;;1.75;;
42864;SDS011;28511;42.680;23.252;2022-09-19T11:30:07;4.47;;;1.45;;
42864;SDS011;28511;42.680;23.252;2022-09-19T11:45:31;3.97;;;1.40;;
42864;SDS011;28511;42.680;23.252;2022-09-19T11:51:16;4.75;;;1.45;;
42864;SDS011;28511;42.680;23.252;2022-09-19T12:11:34;0.73;;;0.73;;
42864;SDS011;28511;42.680;23.252;2022-09-19T12:14:04;1.60;;;1.10;;
42864;SDS011;28511;42.680;23.252;2022-09-19T12:16:46;8.45;;;1.15;;
42864;SDS011;28511;42.680;23.252;2022-09-19T12:36:01;0.85;;;0.50;;
42864;SDS011;28511;42.680;23.252;2022-09-19T12:43:54;2.20;;;0.85;;
42864;SDS011;28511;42.680;23.252;2022-09-19T12:46:31;0.50;;;0.50;;
42864;SDS011;28511;42.680;23.252;2022-09-19T12:51:48;1.30;;;0.50;;
42864;SDS011;28511;42.680;23.252;2022-09-19T12:54:17;0.98;;;0.50;;
42864;SDS011;28511;42.680;23.252;2022-09-19T12:56:51;0.30;;;0.30;;
42864;SDS011;28511;42.680;23.252;2022-09-19T12:59:20;0.63;;;0.60;;
42864;SDS011;28511;42.680;23.252;2022-09-19T13:01:58;1.75;;;0.82;;
42864;SDS011;28511;42.680;23.252;2022-09-19T13:15:03;0.88;;;0.50;;
42864;SDS011;28511;42.680;23.252;2022-09-19T13:17:35;0.47;;;0.40;;
42864;SDS011;28511;42.680;23.252;2022-09-19T13:20:21;1.08;;;0.85;;
42864;SDS011;28511;42.680;23.252;2022-09-19T13:23:08;0.55;;;0.45;;
42864;SDS011;28511;42.680;23.252;2022-09-19T13:28:58;1.70;;;0.88;;
42864;SDS011;28511;42.680;23.252;2022-09-19T13:31:55;0.98;;;0.30;;
42864;SDS011;28511;42.680;23.252;2022-09-19T13:37:01;0.63;;;0.60;;
42864;SDS011;28511;42.680;23.252;2022-09-19T13:42:06;2.22;;;0.70;;
42864;SDS011;28511;42.680;23.252;2022-09-19T13:44:38;2.05;;;0.38;;
42864;SDS011;28511;42.680;23.252;2022-09-19T13:52:09;0.55;;;0.50;;
42864;SDS011;28511;42.680;23.252;2022-09-19T13:54:58;0.50;;;0.50;;
42864;SDS011;28511;42.680;23.252;2022-09-19T13:57:28;0.85;;;0.73;;
42864;SDS011;28511;42.680;23.252;2022-09-19T13:59:56;1.65;;;0.60;;
42864;SDS011;28511;42.680;23.252;2022-09-19T14:23:28;0.75;;;0.50;;
42864;SDS011;28511;42.680;23.252;2022-09-19T14:35:52;0.70;;;0.50;;
42864;SDS011;28511;42.680;23.252;2022-09-19T14:40:57;1.38;;;0.50;;
42864;SDS011;28511;42.680;23.252;2022-09-19T14:51:25;0.40;;;0.40;;
42864;SDS011;28511;42.680;23.252;2022-09-19T14:53:58;0.40;;;0.38;;
42864;SDS011;28511;42.680;23.252;2022-09-19T14:56:27;0.47;;;0.40;;
42864;SDS011;28511;42.680;23.252;2022-09-19T14:58:53;1.38;;;0.68;;
42864;SDS011;28511;42.680;23.252;2022-09-19T15:01:22;2.72;;;1.33;;
42864;SDS011;28511;42.680;23.252;2022-09-19T15:09:16;1.45;;;0.60;;
42864;SDS011;28511;42.680;23.252;2022-09-19T15:11:49;0.50;;;0.45;;
42864;SDS011;28511;42.680;23.252;2022-09-19T15:14:15;1.83;;;0.65;;
42864;SDS011;28511;42.680;23.252;2022-09-19T15:16:41;0.45;;;0.45;;
42864;SDS011;28511;42.680;23.252;2022-09-19T15:19:07;0.55;;;0.55;;
42864;SDS011;28511;42.680;23.252;2022-09-19T15:21:33;3.03;;;1.17;;
42864;SDS011;28511;42.680;23.252;2022-09-19T15:24:00;2.80;;;0.75;;
42864;SDS011;28511;42.680;23.252;2022-09-19T15:26:28;1.55;;;0.68;;
42864;SDS011;28511;42.680;23.252;2022-09-19T15:28:54;5.43;;;0.70;;
42864;SDS011;28511;42.680;23.252;2022-09-19T15:31:21;5.03;;;1.08;;
42864;SDS011;28511;42.680;23.252;2022-09-19T15:33:47;1.35;;;0.73;;
42864;SDS011;28511;42.680;23.252;2022-09-19T15:36:14;3.67;;;1.17;;
42864;SDS011;28511;42.680;23.252;2022-09-19T15:38:39;1.42;;;0.82;;
42864;SDS011;28511;42.680;23.252;2022-09-19T15:41:06;0.60;;;0.60;;
42864;SDS011;28511;42.680;23.252;2022-09-19T15:43:40;3.92;;;0.68;;
42864;SDS011;28511;42.680;23.252;2022-09-19T15:46:31;1.02;;;0.75;;
42864;SDS011;28511;42.680;23.252;2022-09-19T15:48:52;1.42;;;0.80;;
42864;SDS011;28511;42.680;23.252;2022-09-19T15:51:32;1.13;;;0.60;;
42864;SDS011;28511;42.680;23.252;2022-09-19T15:54:01;0.90;;;0.47;;
42864;SDS011;28511;42.680;23.252;2022-09-19T15:56:27;1.17;;;0.50;;
42864;SDS011;28511;42.680;23.252;2022-09-19T15:59:01;0.50;;;0.50;;
42864;SDS011;28511;42.680;23.252;2022-09-19T16:01:33;1.25;;;0.80;;
42864;SDS011;28511;42.680;23.252;2022-09-19T16:09:16;3.55;;;1.42;;
42864;SDS011;28511;42.680;23.252;2022-09-19T16:11:43;4.03;;;0.70;;
42864;SDS011;28511;42.680;23.252;2022-09-19T16:16:40;1.15;;;0.75;;
42864;SDS011;28511;42.680;23.252;2022-09-19T16:19:07;6.10;;;1.23;;
42864;SDS011;28511;42.680;23.252;2022-09-19T16:21:43;1.88;;;0.70;;
42864;SDS011;28511;42.680;23.252;2022-09-19T16:24:09;1.42;;;0.68;;
42864;SDS011;28511;42.680;23.252;2022-09-19T16:26:35;2.35;;;1.00;;
42864;SDS011;28511;42.680;23.252;2022-09-19T16:29:00;1.27;;;0.82;;
42864;SDS011;28511;42.680;23.252;2022-09-19T16:31:33;1.23;;;0.65;;
42864;SDS011;28511;42.680;23.252;2022-09-19T16:36:25;0.73;;;0.67;;
42864;SDS011;28511;42.680;23.252;2022-09-19T16:41:22;0.75;;;0.65;;
42864;SDS011;28511;42.680;23.252;2022-09-19T16:43:52;1.02;;;0.73;;
42864;SDS011;28511;42.680;23.252;2022-09-19T16:46:22;3.60;;;1.58;;
42864;SDS011;28511;42.680;23.252;2022-09-19T16:48:49;0.55;;;0.47;;
42864;SDS011;28511;42.680;23.252;2022-09-19T16:51:14;2.15;;;1.35;;
42864;SDS011;28511;42.680;23.252;2022-09-19T16:53:40;1.92;;;1.73;;
42864;SDS011;28511;42.680;23.252;2022-09-19T16:56:05;2.95;;;0.90;;
42864;SDS011;28511;42.680;23.252;2022-09-19T16:58:32;7.03;;;1.10;;
42864;SDS011;28511;42.680;23.252;2022-09-19T17:00:58;1.52;;;1.00;;
42864;SDS011;28511;42.680;23.252;2022-09-19T17:03:23;2.08;;;0.57;;
42864;SDS011;28511;42.680;23.252;2022-09-19T17:05:49;1.02;;;0.80;;
42864;SDS011;28511;42.680;23.252;2022-09-19T17:08:15;12.05;;;4.38;;
42864;SDS011;28511;42.680;23.252;2022-09-19T17:10:40;13.65;;;6.40;;
42864;SDS011;28511;42.680;23.252;2022-09-19T17:13:08;12.85;;;6.43;;
42864;SDS011;28511;42.680;23.252;2022-09-19T17:18:05;10.95;;;4.95;;
42864;SDS011;28511;42.680;23.252;2022-09-19T17:20:30;12.98;;;6.53;;
42864;SDS011;28511;42.680;23.252;2022-09-19T17:22:56;13.63;;;6.45;;
42864;SDS011;28511;42.680;23.252;2022-09-19T17:25:29;9.80;;;4.57;;
42864;SDS011;28511;42.680;23.252;2022-09-19T17:27:56;8.45;;;3.25;;
42864;SDS011;28511;42.680;23.252;2022-09-19T17:30:22;5.78;;;2.05;;
42864;SDS011;28511;42.680;23.252;2022-09-19T17:32:47;4.15;;;1.50;;
42864;SDS011;28511;42.680;23.252;2022-09-19T17:35:16;1.13;;;0.93;;
42864;SDS011;28511;42.680;23.252;2022-09-19T17:37:41;2.05;;;1.15;;
42864;SDS011;28511;42.680;23.252;2022-09-19T17:40:06;2.58;;;1.15;;
42864;SDS011;28511;42.680;23.252;2022-09-19T17:42:32;2.63;;;1.08;;
42864;SDS011;28511;42.680;23.252;2022-09-19T17:44:57;3.08;;;1.38;;
42864;SDS011;28511;42.680;23.252;2022-09-19T17:47:23;2.22;;;1.25;;
42864;SDS011;28511;42.680;23.252;2022-09-19T17:49:48;4.15;;;1.10;;
42864;SDS011;28511;42.680;23.252;2022-09-19T17:52:14;2.80;;;1.13;;
42864;SDS011;28511;42.680;23.252;2022-09-19T17:54:40;1.90;;;1.20;;
42864;SDS011;28511;42.680;23.252;2022-09-19T17:57:05;3.03;;;1.05;;
42864;SDS011;28511;42.680;23.252;2022-09-19T17:59:34;3.28;;;1.17;;
42864;SDS011;28511;42.680;23.252;2022-09-19T18:01:59;0.70;;;0.70;;
42864;SDS011;28511;42.680;23.252;2022-09-19T18:04:42;1.25;;;0.90;;
42864;SDS011;28511;42.680;23.252;2022-09-19T18:07:08;4.20;;;1.00;;
42864;SDS011;28511;42.680;23.252;2022-09-19T18:09:33;1.23;;;1.13;;
42864;SDS011;28511;42.680;23.252;2022-09-19T18:11:59;0.57;;;0.57;;
42864;SDS011;28511;42.680;23.252;2022-09-19T18:14:24;2.38;;;1.63;;
42864;SDS011;28511;42.680;23.252;2022-09-19T18:16:50;1.38;;;0.63;;
42864;SDS011;28511;42.680;23.252;2022-09-19T18:19:15;2.30;;;0.75;;
42864;SDS011;28511;42.680;23.252;2022-09-19T18:21:41;0.73;;;0.60;;
42864;SDS011;28511;42.680;23.252;2022-09-19T18:24:07;2.13;;;0.68;;
42864;SDS011;28511;42.680;23.252;2022-09-19T18:26:32;5.60;;;0.95;;
42864;SDS011;28511;42.680;23.252;2022-09-19T18:28:57;1.38;;;1.00;;
42864;SDS011;28511;42.680;23.252;2022-09-19T18:31:23;1.25;;;0.60;;
42864;SDS011;28511;42.680;23.252;2022-09-19T18:33:48;0.60;;;0.60;;
42864;SDS011;28511;42.680;23.252;2022-09-19T18:36:15;1.77;;;0.77;;
42864;SDS011;28511;42.680;23.252;2022-09-19T18:38:41;0.73;;;0.73;;
42864;SDS011;28511;42.680;23.252;2022-09-19T18:41:06;2.20;;;0.93;;
42864;SDS011;28511;42.680;23.252;2022-09-19T18:43:32;1.10;;;0.50;;
42864;SDS011;28511;42.680;23.252;2022-09-19T18:46:05;3.55;;;1.73;;
42864;SDS011;28511;42.680;23.252;2022-09-19T18:48:30;1.90;;;0.50;;
42864;SDS011;28511;42.680;23.252;2022-09-19T18:50:56;0.93;;;0.43;;
42864;SDS011;28511;42.680;23.252;2022-09-19T18:53:21;0.70;;;0.50;;
42864;SDS011;28511;42.680;23.252;2022-09-19T18:55:52;2.63;;;0.80;;
42864;SDS011;28511;42.680;23.252;2022-09-19T18:58:18;0.68;;;0.60;;
42864;SDS011;28511;42.680;23.252;2022-09-19T19:00:44;2.33;;;0.77;;
42864;SDS011;28511;42.680;23.252;2022-09-19T19:03:11;0.57;;;0.57;;
42864;SDS011;28511;42.680;23.252;2022-09-19T19:05:36;0.73;;;0.60;;